sensor_id;sensor_type;location;lat;lon;timestamp;temperature;humidity
12156;DHT22;6141;49.092;8.516;2023-05-10T00:00:34;15.50;87.60
12156;DHT22;6141;49.092;8.516;2023-05-10T00:03:02;15.40;86.80
12156;DHT22;6141;49.092;8.516;2023-05-10T00:05:32;15.20;88.20
12156;DHT22;6141;49.092;8.516;2023-05-10T00:08:01;15.30;89.20
12156;DHT22;6141;49.092;8.516;2023-05-10T00:10:30;15.50;87.60
12156;DHT22;6141;49.092;8.516;2023-05-10T00:12:59;15.50;86.90
12156;DHT22;6141;49.092;8.516;2023-05-10T00:15:28;15.40;87.00
12156;DHT22;6141;49.092;8.516;2023-05-10T00:17:58;15.40;86.90
12156;DHT22;6141;49.092;8.516;2023-05-10T00:20:27;15.20;86.80
12156;DHT22;6141;49.092;8.516;2023-05-10T00:22:55;15.20;87.40
12156;DHT22;6141;49.092;8.516;2023-05-10T00:25:24;15.10;88.20
12156;DHT22;6141;49.092;8.516;2023-05-10T00:27:53;15.00;88.30
12156;DHT22;6141;49.092;8.516;2023-05-10T00:30:22;14.90;89.80
12156;DHT22;6141;49.092;8.516;2023-05-10T00:32:53;14.90;89.90
12156;DHT22;6141;49.092;8.516;2023-05-10T00:35:23;15.00;89.80
12156;DHT22;6141;49.092;8.516;2023-05-10T00:37:52;15.00;89.80
12156;DHT22;6141;49.092;8.516;2023-05-10T00:40:20;15.10;89.00
12156;DHT22;6141;49.092;8.516;2023-05-10T00:42:54;15.40;87.10
12156;DHT22;6141;49.092;8.516;2023-05-10T00:45:22;15.50;84.40
12156;DHT22;6141;49.092;8.516;2023-05-10T00:47:52;15.40;84.70
12156;DHT22;6141;49.092;8.516;2023-05-10T00:50:23;15.50;84.70
12156;DHT22;6141;49.092;8.516;2023-05-10T00:52:53;15.40;84.70
12156;DHT22;6141;49.092;8.516;2023-05-10T00:55:22;15.40;84.10
12156;DHT22;6141;49.092;8.516;2023-05-10T00:57:50;15.20;85.80
12156;DHT22;6141;49.092;8.516;2023-05-10T01:00:20;15.30;85.80
12156;DHT22;6141;49.092;8.516;2023-05-10T01:02:49;15.10;86.30
12156;DHT22;6141;49.092;8.516;2023-05-10T01:05:18;15.00;85.80
12156;DHT22;6141;49.092;8.516;2023-05-10T01:07:48;14.80;89.30
12156;DHT22;6141;49.092;8.516;2023-05-10T01:10:16;14.90;89.90
12156;DHT22;6141;49.092;8.516;2023-05-10T01:12:46;14.80;89.70
12156;DHT22;6141;49.092;8.516;2023-05-10T01:15:16;14.70;90.40
12156;DHT22;6141;49.092;8.516;2023-05-10T01:17:46;14.80;90.10
12156;DHT22;6141;49.092;8.516;2023-05-10T01:20:15;14.80;90.30
12156;DHT22;6141;49.092;8.516;2023-05-10T01:25:55;14.90;90.10
12156;DHT22;6141;49.092;8.516;2023-05-10T01:29:05;15.20;87.10
12156;DHT22;6141;49.092;8.516;2023-05-10T01:34:56;15.30;85.90
12156;DHT22;6141;49.092;8.516;2023-05-10T01:37:33;15.00;87.10
12156;DHT22;6141;49.092;8.516;2023-05-10T01:40:12;15.10;87.00
12156;DHT22;6141;49.092;8.516;2023-05-10T01:42:47;15.10;85.90
12156;DHT22;6141;49.092;8.516;2023-05-10T01:45:24;15.30;85.20
12156;DHT22;6141;49.092;8.516;2023-05-10T01:48:06;15.20;85.10
12156;DHT22;6141;49.092;8.516;2023-05-10T01:50:37;15.20;84.70
12156;DHT22;6141;49.092;8.516;2023-05-10T01:53:08;15.20;85.00
12156;DHT22;6141;49.092;8.516;2023-05-10T01:55:42;15.20;84.50
12156;DHT22;6141;49.092;8.516;2023-05-10T01:58:14;15.10;84.40
12156;DHT22;6141;49.092;8.516;2023-05-10T02:00:44;15.00;85.60
12156;DHT22;6141;49.092;8.516;2023-05-10T02:03:16;15.00;85.40
12156;DHT22;6141;49.092;8.516;2023-05-10T02:05:46;15.30;84.00
12156;DHT22;6141;49.092;8.516;2023-05-10T02:08:17;15.10;84.00
12156;DHT22;6141;49.092;8.516;2023-05-10T02:10:47;15.00;85.90
12156;DHT22;6141;49.092;8.516;2023-05-10T02:13:17;15.20;85.50
12156;DHT22;6141;49.092;8.516;2023-05-10T02:15:48;15.20;84.40
12156;DHT22;6141;49.092;8.516;2023-05-10T02:18:22;15.40;83.90
12156;DHT22;6141;49.092;8.516;2023-05-10T02:20:55;15.30;83.50
12156;DHT22;6141;49.092;8.516;2023-05-10T02:23:28;15.40;83.30
12156;DHT22;6141;49.092;8.516;2023-05-10T02:25:59;15.50;82.10
12156;DHT22;6141;49.092;8.516;2023-05-10T02:28:31;15.30;82.90
12156;DHT22;6141;49.092;8.516;2023-05-10T02:31:01;15.30;84.10
12156;DHT22;6141;49.092;8.516;2023-05-10T02:33:34;15.30;83.50
12156;DHT22;6141;49.092;8.516;2023-05-10T02:36:03;15.10;84.90
12156;DHT22;6141;49.092;8.516;2023-05-10T02:38:32;14.90;86.40
12156;DHT22;6141;49.092;8.516;2023-05-10T02:41:02;15.00;86.90
12156;DHT22;6141;49.092;8.516;2023-05-10T02:43:32;14.80;87.90
12156;DHT22;6141;49.092;8.516;2023-05-10T02:46:02;14.70;89.60
12156;DHT22;6141;49.092;8.516;2023-05-10T02:48:32;14.70;89.70
12156;DHT22;6141;49.092;8.516;2023-05-10T02:51:05;14.70;90.00
12156;DHT22;6141;49.092;8.516;2023-05-10T02:53:38;14.80;89.70
12156;DHT22;6141;49.092;8.516;2023-05-10T02:56:13;14.70;90.20
12156;DHT22;6141;49.092;8.516;2023-05-10T02:58:44;14.80;89.70
12156;DHT22;6141;49.092;8.516;2023-05-10T03:01:13;14.80;89.70
12156;DHT22;6141;49.092;8.516;2023-05-10T03:03:43;14.90;89.80
12156;DHT22;6141;49.092;8.516;2023-05-10T03:06:13;14.90;89.30
12156;DHT22;6141;49.092;8.516;2023-05-10T03:08:41;14.80;89.60
12156;DHT22;6141;49.092;8.516;2023-05-10T03:11:24;14.80;89.30
12156;DHT22;6141;49.092;8.516;2023-05-10T03:14:10;14.70;89.60
12156;DHT22;6141;49.092;8.516;2023-05-10T03:16:44;14.60;90.60
12156;DHT22;6141;49.092;8.516;2023-05-10T03:19:21;14.80;90.20
12156;DHT22;6141;49.092;8.516;2023-05-10T03:21:53;15.00;87.60
12156;DHT22;6141;49.092;8.516;2023-05-10T03:24:25;15.20;86.10
12156;DHT22;6141;49.092;8.516;2023-05-10T03:26:59;15.10;86.30
12156;DHT22;6141;49.092;8.516;2023-05-10T03:29:30;14.90;87.30
12156;DHT22;6141;49.092;8.516;2023-05-10T03:31:59;14.90;88.00
12156;DHT22;6141;49.092;8.516;2023-05-10T03:34:41;14.70;88.80
12156;DHT22;6141;49.092;8.516;2023-05-10T03:37:10;14.70;89.60
12156;DHT22;6141;49.092;8.516;2023-05-10T03:39:39;14.60;89.60
12156;DHT22;6141;49.092;8.516;2023-05-10T03:42:09;14.50;90.10
12156;DHT22;6141;49.092;8.516;2023-05-10T03:44:39;14.40;90.50
12156;DHT22;6141;49.092;8.516;2023-05-10T03:47:08;14.40;91.00
12156;DHT22;6141;49.092;8.516;2023-05-10T03:49:38;14.40;90.50
12156;DHT22;6141;49.092;8.516;2023-05-10T03:52:07;14.30;90.80
12156;DHT22;6141;49.092;8.516;2023-05-10T03:54:36;14.30;91.10
12156;DHT22;6141;49.092;8.516;2023-05-10T03:57:04;14.20;91.20
12156;DHT22;6141;49.092;8.516;2023-05-10T03:59:33;14.20;91.20
12156;DHT22;6141;49.092;8.516;2023-05-10T04:02:02;14.20;90.90
12156;DHT22;6141;49.092;8.516;2023-05-10T04:04:30;14.10;91.60
12156;DHT22;6141;49.092;8.516;2023-05-10T04:07:01;14.20;91.30
12156;DHT22;6141;49.092;8.516;2023-05-10T04:09:30;14.10;91.50
12156;DHT22;6141;49.092;8.516;2023-05-10T04:11:58;14.20;91.60
12156;DHT22;6141;49.092;8.516;2023-05-10T04:14:27;14.30;91.70
12156;DHT22;6141;49.092;8.516;2023-05-10T04:16:56;14.40;91.00
12156;DHT22;6141;49.092;8.516;2023-05-10T04:19:29;14.40;91.20
12156;DHT22;6141;49.092;8.516;2023-05-10T04:21:58;14.50;90.60
12156;DHT22;6141;49.092;8.516;2023-05-10T04:24:31;14.70;89.60
12156;DHT22;6141;49.092;8.516;2023-05-10T04:27:00;14.80;89.70
12156;DHT22;6141;49.092;8.516;2023-05-10T04:29:28;14.90;87.10
12156;DHT22;6141;49.092;8.516;2023-05-10T04:31:58;14.70;87.90
12156;DHT22;6141;49.092;8.516;2023-05-10T04:34:27;14.60;89.20
12156;DHT22;6141;49.092;8.516;2023-05-10T04:36:55;14.50;90.20
12156;DHT22;6141;49.092;8.516;2023-05-10T04:39:25;14.50;90.10
12156;DHT22;6141;49.092;8.516;2023-05-10T04:41:55;14.40;90.80
12156;DHT22;6141;49.092;8.516;2023-05-10T04:44:24;14.50;90.50
12156;DHT22;6141;49.092;8.516;2023-05-10T04:46:52;14.40;91.00
12156;DHT22;6141;49.092;8.516;2023-05-10T04:49:20;14.30;91.10
12156;DHT22;6141;49.092;8.516;2023-05-10T04:51:49;14.40;91.10
12156;DHT22;6141;49.092;8.516;2023-05-10T04:54:17;14.40;91.00
12156;DHT22;6141;49.092;8.516;2023-05-10T04:56:46;14.40;90.80
12156;DHT22;6141;49.092;8.516;2023-05-10T04:59:17;14.40;91.20
12156;DHT22;6141;49.092;8.516;2023-05-10T05:01:45;14.40;91.50
12156;DHT22;6141;49.092;8.516;2023-05-10T05:04:14;14.40;91.20
12156;DHT22;6141;49.092;8.516;2023-05-10T05:06:43;14.20;91.60
12156;DHT22;6141;49.092;8.516;2023-05-10T05:09:13;14.20;92.20
12156;DHT22;6141;49.092;8.516;2023-05-10T05:11:42;14.30;92.20
12156;DHT22;6141;49.092;8.516;2023-05-10T05:14:10;14.20;92.80
12156;DHT22;6141;49.092;8.516;2023-05-10T05:16:40;14.30;92.90
12156;DHT22;6141;49.092;8.516;2023-05-10T05:19:08;14.30;91.80
12156;DHT22;6141;49.092;8.516;2023-05-10T05:21:37;14.30;92.80
12156;DHT22;6141;49.092;8.516;2023-05-10T05:24:06;14.40;92.90
12156;DHT22;6141;49.092;8.516;2023-05-10T05:26:35;14.30;92.70
12156;DHT22;6141;49.092;8.516;2023-05-10T05:29:04;14.30;92.80
12156;DHT22;6141;49.092;8.516;2023-05-10T05:31:32;14.40;92.70
12156;DHT22;6141;49.092;8.516;2023-05-10T05:34:02;14.40;92.70
12156;DHT22;6141;49.092;8.516;2023-05-10T05:36:35;14.40;92.60
12156;DHT22;6141;49.092;8.516;2023-05-10T05:39:05;14.50;92.70
12156;DHT22;6141;49.092;8.516;2023-05-10T05:41:33;14.50;92.60
12156;DHT22;6141;49.092;8.516;2023-05-10T05:44:01;14.50;92.60
12156;DHT22;6141;49.092;8.516;2023-05-10T05:46:30;14.50;92.80
12156;DHT22;6141;49.092;8.516;2023-05-10T05:48:58;14.40;93.50
12156;DHT22;6141;49.092;8.516;2023-05-10T05:51:28;14.40;93.50
12156;DHT22;6141;49.092;8.516;2023-05-10T05:53:57;14.50;93.30
12156;DHT22;6141;49.092;8.516;2023-05-10T05:56:26;14.50;93.20
12156;DHT22;6141;49.092;8.516;2023-05-10T05:58:55;14.50;93.00
12156;DHT22;6141;49.092;8.516;2023-05-10T06:01:23;14.50;92.40
12156;DHT22;6141;49.092;8.516;2023-05-10T06:03:52;14.70;92.30
12156;DHT22;6141;49.092;8.516;2023-05-10T06:06:20;14.80;91.70
12156;DHT22;6141;49.092;8.516;2023-05-10T06:08:50;14.70;91.50
12156;DHT22;6141;49.092;8.516;2023-05-10T06:11:18;14.80;91.00
12156;DHT22;6141;49.092;8.516;2023-05-10T06:13:48;14.80;91.50
12156;DHT22;6141;49.092;8.516;2023-05-10T06:16:17;14.50;91.10
12156;DHT22;6141;49.092;8.516;2023-05-10T06:18:46;14.60;91.80
12156;DHT22;6141;49.092;8.516;2023-05-10T06:21:16;14.70;91.80
12156;DHT22;6141;49.092;8.516;2023-05-10T06:23:45;14.60;91.30
12156;DHT22;6141;49.092;8.516;2023-05-10T06:26:15;14.70;91.40
12156;DHT22;6141;49.092;8.516;2023-05-10T06:28:44;14.60;90.40
12156;DHT22;6141;49.092;8.516;2023-05-10T06:31:12;14.50;89.40
12156;DHT22;6141;49.092;8.516;2023-05-10T06:33:41;14.50;90.50
12156;DHT22;6141;49.092;8.516;2023-05-10T06:36:10;14.60;90.50
12156;DHT22;6141;49.092;8.516;2023-05-10T06:38:38;14.60;89.50
12156;DHT22;6141;49.092;8.516;2023-05-10T06:41:07;14.50;89.20
12156;DHT22;6141;49.092;8.516;2023-05-10T06:43:37;14.60;89.50
12156;DHT22;6141;49.092;8.516;2023-05-10T06:46:08;14.60;87.80
12156;DHT22;6141;49.092;8.516;2023-05-10T06:48:37;14.70;89.20
12156;DHT22;6141;49.092;8.516;2023-05-10T06:51:06;14.70;87.00
12156;DHT22;6141;49.092;8.516;2023-05-10T06:53:35;14.70;86.90
12156;DHT22;6141;49.092;8.516;2023-05-10T06:56:05;14.70;86.10
12156;DHT22;6141;49.092;8.516;2023-05-10T06:58:34;14.80;86.00
12156;DHT22;6141;49.092;8.516;2023-05-10T07:01:07;15.00;83.50
12156;DHT22;6141;49.092;8.516;2023-05-10T07:03:36;15.00;84.90
12156;DHT22;6141;49.092;8.516;2023-05-10T07:06:05;15.00;85.80
12156;DHT22;6141;49.092;8.516;2023-05-10T07:08:44;15.20;85.20
12156;DHT22;6141;49.092;8.516;2023-05-10T07:11:16;15.10;84.60
12156;DHT22;6141;49.092;8.516;2023-05-10T07:13:45;15.30;84.40
12156;DHT22;6141;49.092;8.516;2023-05-10T07:16:17;15.40;82.70
12156;DHT22;6141;49.092;8.516;2023-05-10T07:18:45;15.40;83.50
12156;DHT22;6141;49.092;8.516;2023-05-10T07:21:15;15.40;79.70
12156;DHT22;6141;49.092;8.516;2023-05-10T07:23:43;15.40;81.10
12156;DHT22;6141;49.092;8.516;2023-05-10T07:26:12;15.10;81.90
12156;DHT22;6141;49.092;8.516;2023-05-10T07:28:41;15.10;80.80
12156;DHT22;6141;49.092;8.516;2023-05-10T07:31:10;15.20;80.90
12156;DHT22;6141;49.092;8.516;2023-05-10T07:33:41;15.30;81.00
12156;DHT22;6141;49.092;8.516;2023-05-10T07:36:09;15.20;80.90
12156;DHT22;6141;49.092;8.516;2023-05-10T07:38:37;15.10;80.90
12156;DHT22;6141;49.092;8.516;2023-05-10T07:41:07;15.20;80.90
12156;DHT22;6141;49.092;8.516;2023-05-10T07:43:35;15.10;80.80
12156;DHT22;6141;49.092;8.516;2023-05-10T07:46:06;15.10;80.20
12156;DHT22;6141;49.092;8.516;2023-05-10T07:48:44;15.20;80.90
12156;DHT22;6141;49.092;8.516;2023-05-10T07:51:13;15.50;81.20
12156;DHT22;6141;49.092;8.516;2023-05-10T07:53:42;15.60;81.30
12156;DHT22;6141;49.092;8.516;2023-05-10T07:56:21;15.50;81.20
12156;DHT22;6141;49.092;8.516;2023-05-10T07:58:50;15.40;80.20
12156;DHT22;6141;49.092;8.516;2023-05-10T08:01:21;15.30;81.00
12156;DHT22;6141;49.092;8.516;2023-05-10T08:03:51;15.30;79.30
12156;DHT22;6141;49.092;8.516;2023-05-10T08:06:20;15.40;79.00
12156;DHT22;6141;49.092;8.516;2023-05-10T08:08:49;15.30;79.10
12156;DHT22;6141;49.092;8.516;2023-05-10T08:11:19;15.40;78.10
12156;DHT22;6141;49.092;8.516;2023-05-10T08:13:51;15.50;80.60
12156;DHT22;6141;49.092;8.516;2023-05-10T08:16:20;15.50;78.50
12156;DHT22;6141;49.092;8.516;2023-05-10T08:18:50;15.50;78.50
12156;DHT22;6141;49.092;8.516;2023-05-10T08:21:19;15.40;77.90
12156;DHT22;6141;49.092;8.516;2023-05-10T08:23:48;15.50;77.10
12156;DHT22;6141;49.092;8.516;2023-05-10T08:26:18;15.40;76.40
12156;DHT22;6141;49.092;8.516;2023-05-10T08:28:48;15.40;77.90
12156;DHT22;6141;49.092;8.516;2023-05-10T08:31:16;15.60;76.60
12156;DHT22;6141;49.092;8.516;2023-05-10T08:33:45;15.60;76.60
12156;DHT22;6141;49.092;8.516;2023-05-10T08:36:16;15.50;74.20
12156;DHT22;6141;49.092;8.516;2023-05-10T08:38:50;15.60;76.60
12156;DHT22;6141;49.092;8.516;2023-05-10T08:41:20;15.50;75.10
12156;DHT22;6141;49.092;8.516;2023-05-10T08:43:50;15.60;75.20
12156;DHT22;6141;49.092;8.516;2023-05-10T08:46:19;15.70;73.30
12156;DHT22;6141;49.092;8.516;2023-05-10T08:48:51;15.70;72.10
12156;DHT22;6141;49.092;8.516;2023-05-10T08:51:24;15.80;73.30
12156;DHT22;6141;49.092;8.516;2023-05-10T08:53:54;15.70;71.90
12156;DHT22;6141;49.092;8.516;2023-05-10T08:56:23;15.50;71.70
12156;DHT22;6141;49.092;8.516;2023-05-10T08:58:52;15.50;73.20
12156;DHT22;6141;49.092;8.516;2023-05-10T09:01:21;15.50;71.70
12156;DHT22;6141;49.092;8.516;2023-05-10T09:03:50;15.50;71.70
12156;DHT22;6141;49.092;8.516;2023-05-10T09:06:19;15.70;71.90
12156;DHT22;6141;49.092;8.516;2023-05-10T09:08:49;15.60;70.90
12156;DHT22;6141;49.092;8.516;2023-05-10T09:11:20;15.70;69.50
12156;DHT22;6141;49.092;8.516;2023-05-10T09:13:50;15.70;70.40
12156;DHT22;6141;49.092;8.516;2023-05-10T09:16:19;15.70;65.70
12156;DHT22;6141;49.092;8.516;2023-05-10T09:18:48;15.70;65.20
12156;DHT22;6141;49.092;8.516;2023-05-10T09:21:20;15.70;67.10
12156;DHT22;6141;49.092;8.516;2023-05-10T09:23:50;15.90;68.70
12156;DHT22;6141;49.092;8.516;2023-05-10T09:26:24;16.00;68.40
12156;DHT22;6141;49.092;8.516;2023-05-10T09:28:54;16.00;64.30
12156;DHT22;6141;49.092;8.516;2023-05-10T09:31:24;16.00;65.10
12156;DHT22;6141;49.092;8.516;2023-05-10T09:33:54;16.00;63.10
12156;DHT22;6141;49.092;8.516;2023-05-10T09:36:23;16.00;67.60
12156;DHT22;6141;49.092;8.516;2023-05-10T09:38:53;16.10;66.30
12156;DHT22;6141;49.092;8.516;2023-05-10T09:41:22;16.10;61.00
12156;DHT22;6141;49.092;8.516;2023-05-10T09:43:56;16.10;62.50
12156;DHT22;6141;49.092;8.516;2023-05-10T09:46:24;16.20;65.50
12156;DHT22;6141;49.092;8.516;2023-05-10T09:48:53;16.10;66.00
12156;DHT22;6141;49.092;8.516;2023-05-10T09:51:23;16.10;66.10
12156;DHT22;6141;49.092;8.516;2023-05-10T09:56:47;16.00;64.90
12156;DHT22;6141;49.092;8.516;2023-05-10T09:59:16;15.90;66.50
12156;DHT22;6141;49.092;8.516;2023-05-10T10:01:49;15.70;69.80
12156;DHT22;6141;49.092;8.516;2023-05-10T10:04:19;15.60;73.80
12156;DHT22;6141;49.092;8.516;2023-05-10T10:06:58;15.50;72.00
12156;DHT22;6141;49.092;8.516;2023-05-10T10:09:28;15.60;72.40
12156;DHT22;6141;49.092;8.516;2023-05-10T10:11:59;15.80;74.90
12156;DHT22;6141;49.092;8.516;2023-05-10T10:14:29;15.80;69.40
12156;DHT22;6141;49.092;8.516;2023-05-10T10:17:00;15.90;72.10
12156;DHT22;6141;49.092;8.516;2023-05-10T10:19:33;16.00;71.30
12156;DHT22;6141;49.092;8.516;2023-05-10T10:22:04;16.20;73.10
12156;DHT22;6141;49.092;8.516;2023-05-10T10:24:34;16.30;70.30
12156;DHT22;6141;49.092;8.516;2023-05-10T10:27:13;16.30;69.70
12156;DHT22;6141;49.092;8.516;2023-05-10T10:29:50;16.20;66.30
12156;DHT22;6141;49.092;8.516;2023-05-10T10:32:27;16.10;65.20
12156;DHT22;6141;49.092;8.516;2023-05-10T10:34:57;16.30;69.20
12156;DHT22;6141;49.092;8.516;2023-05-10T10:37:43;16.40;70.50
12156;DHT22;6141;49.092;8.516;2023-05-10T10:40:26;16.20;63.30
12156;DHT22;6141;49.092;8.516;2023-05-10T10:42:57;16.20;62.60
12156;DHT22;6141;49.092;8.516;2023-05-10T10:45:25;16.30;63.00
12156;DHT22;6141;49.092;8.516;2023-05-10T10:48:21;16.40;63.70
12156;DHT22;6141;49.092;8.516;2023-05-10T10:50:56;16.30;61.10
12156;DHT22;6141;49.092;8.516;2023-05-10T10:53:26;16.20;61.70
12156;DHT22;6141;49.092;8.516;2023-05-10T10:56:05;16.00;60.50
12156;DHT22;6141;49.092;8.516;2023-05-10T10:58:38;16.00;60.80
12156;DHT22;6141;49.092;8.516;2023-05-10T11:01:15;16.10;61.10
12156;DHT22;6141;49.092;8.516;2023-05-10T11:04:17;16.10;60.90
12156;DHT22;6141;49.092;8.516;2023-05-10T11:06:47;16.00;59.90
12156;DHT22;6141;49.092;8.516;2023-05-10T11:09:16;15.90;62.40
12156;DHT22;6141;49.092;8.516;2023-05-10T11:12:08;16.00;58.80
12156;DHT22;6141;49.092;8.516;2023-05-10T11:14:59;16.00;59.30
12156;DHT22;6141;49.092;8.516;2023-05-10T11:17:51;16.10;58.30
12156;DHT22;6141;49.092;8.516;2023-05-10T11:20:42;16.10;57.00
12156;DHT22;6141;49.092;8.516;2023-05-10T11:23:32;16.10;57.00
12156;DHT22;6141;49.092;8.516;2023-05-10T11:26:22;16.20;56.40
12156;DHT22;6141;49.092;8.516;2023-05-10T11:29:13;16.40;55.70
12156;DHT22;6141;49.092;8.516;2023-05-10T11:32:05;16.40;54.00
12156;DHT22;6141;49.092;8.516;2023-05-10T11:34:55;16.50;54.50
12156;DHT22;6141;49.092;8.516;2023-05-10T11:37:48;16.50;55.70
12156;DHT22;6141;49.092;8.516;2023-05-10T11:40:38;16.60;54.80
12156;DHT22;6141;49.092;8.516;2023-05-10T11:43:27;16.70;53.70
12156;DHT22;6141;49.092;8.516;2023-05-10T11:46:19;16.70;57.30
12156;DHT22;6141;49.092;8.516;2023-05-10T11:49:10;16.70;55.40
12156;DHT22;6141;49.092;8.516;2023-05-10T11:52:04;16.50;53.60
12156;DHT22;6141;49.092;8.516;2023-05-10T11:54:36;16.70;56.10
12156;DHT22;6141;49.092;8.516;2023-05-10T11:57:04;16.90;51.00
12156;DHT22;6141;49.092;8.516;2023-05-10T11:59:53;17.10;54.10
12156;DHT22;6141;49.092;8.516;2023-05-10T12:02:41;17.20;47.30
12156;DHT22;6141;49.092;8.516;2023-05-10T12:05:33;17.10;46.80
12156;DHT22;6141;49.092;8.516;2023-05-10T12:08:30;17.10;43.10
12156;DHT22;6141;49.092;8.516;2023-05-10T12:11:19;16.90;40.40
12156;DHT22;6141;49.092;8.516;2023-05-10T12:14:09;17.00;42.60
12156;DHT22;6141;49.092;8.516;2023-05-10T12:16:59;17.20;41.70
12156;DHT22;6141;49.092;8.516;2023-05-10T12:19:48;17.30;42.60
12156;DHT22;6141;49.092;8.516;2023-05-10T12:22:38;17.40;45.70
12156;DHT22;6141;49.092;8.516;2023-05-10T12:25:30;17.10;39.20
12156;DHT22;6141;49.092;8.516;2023-05-10T12:28:21;17.00;40.20
12156;DHT22;6141;49.092;8.516;2023-05-10T12:31:12;16.90;41.50
12156;DHT22;6141;49.092;8.516;2023-05-10T12:34:00;16.90;41.60
12156;DHT22;6141;49.092;8.516;2023-05-10T12:36:50;17.00;41.70
12156;DHT22;6141;49.092;8.516;2023-05-10T12:39:41;17.00;41.60
12156;DHT22;6141;49.092;8.516;2023-05-10T12:42:31;17.20;42.50
12156;DHT22;6141;49.092;8.516;2023-05-10T12:45:20;17.20;40.20
12156;DHT22;6141;49.092;8.516;2023-05-10T12:48:09;17.40;41.00
12156;DHT22;6141;49.092;8.516;2023-05-10T12:51:00;17.30;35.50
12156;DHT22;6141;49.092;8.516;2023-05-10T12:53:49;17.30;37.10
12156;DHT22;6141;49.092;8.516;2023-05-10T12:56:39;17.30;35.10
12156;DHT22;6141;49.092;8.516;2023-05-10T12:59:28;17.40;35.80
12156;DHT22;6141;49.092;8.516;2023-05-10T13:02:17;17.40;37.80
12156;DHT22;6141;49.092;8.516;2023-05-10T13:05:08;17.50;37.90
12156;DHT22;6141;49.092;8.516;2023-05-10T13:07:57;17.50;34.60
12156;DHT22;6141;49.092;8.516;2023-05-10T13:10:46;17.50;36.50
12156;DHT22;6141;49.092;8.516;2023-05-10T13:13:39;17.70;36.30
12156;DHT22;6141;49.092;8.516;2023-05-10T13:16:27;17.80;35.10
12156;DHT22;6141;49.092;8.516;2023-05-10T13:19:18;17.80;35.30
12156;DHT22;6141;49.092;8.516;2023-05-10T13:22:07;17.80;36.00
12156;DHT22;6141;49.092;8.516;2023-05-10T13:24:56;17.80;36.70
12156;DHT22;6141;49.092;8.516;2023-05-10T13:27:44;17.80;37.20
12156;DHT22;6141;49.092;8.516;2023-05-10T13:30:35;17.80;31.50
12156;DHT22;6141;49.092;8.516;2023-05-10T13:33:23;17.90;35.10
12156;DHT22;6141;49.092;8.516;2023-05-10T13:36:12;17.70;34.60
12156;DHT22;6141;49.092;8.516;2023-05-10T13:39:01;18.00;34.60
12156;DHT22;6141;49.092;8.516;2023-05-10T13:41:56;18.00;32.00
12156;DHT22;6141;49.092;8.516;2023-05-10T13:44:44;18.00;33.60
12156;DHT22;6141;49.092;8.516;2023-05-10T13:47:34;18.10;30.80
12156;DHT22;6141;49.092;8.516;2023-05-10T13:50:23;18.10;30.20
12156;DHT22;6141;49.092;8.516;2023-05-10T13:53:13;18.20;31.30
12156;DHT22;6141;49.092;8.516;2023-05-10T13:56:02;18.30;31.40
12156;DHT22;6141;49.092;8.516;2023-05-10T13:58:51;18.30;33.00
12156;DHT22;6141;49.092;8.516;2023-05-10T14:01:40;18.40;35.00
12156;DHT22;6141;49.092;8.516;2023-05-10T14:04:31;18.40;34.00
12156;DHT22;6141;49.092;8.516;2023-05-10T14:07:22;18.50;31.50
12156;DHT22;6141;49.092;8.516;2023-05-10T14:10:11;18.40;32.00
12156;DHT22;6141;49.092;8.516;2023-05-10T14:13:01;18.50;30.60
12156;DHT22;6141;49.092;8.516;2023-05-10T14:15:49;18.30;29.50
12156;DHT22;6141;49.092;8.516;2023-05-10T14:18:38;18.50;30.60
12156;DHT22;6141;49.092;8.516;2023-05-10T14:21:28;18.30;28.00
12156;DHT22;6141;49.092;8.516;2023-05-10T14:24:18;18.10;26.50
12156;DHT22;6141;49.092;8.516;2023-05-10T14:27:06;18.00;27.80
12156;DHT22;6141;49.092;8.516;2023-05-10T14:29:55;18.30;30.60
12156;DHT22;6141;49.092;8.516;2023-05-10T14:32:44;18.50;30.90
12156;DHT22;6141;49.092;8.516;2023-05-10T14:35:33;18.40;28.10
12156;DHT22;6141;49.092;8.516;2023-05-10T14:38:23;18.50;28.20
12156;DHT22;6141;49.092;8.516;2023-05-10T14:41:12;18.50;27.80
12156;DHT22;6141;49.092;8.516;2023-05-10T14:44:02;18.50;29.90
12156;DHT22;6141;49.092;8.516;2023-05-10T14:46:51;18.40;29.40
12156;DHT22;6141;49.092;8.516;2023-05-10T14:49:40;18.50;31.30
12156;DHT22;6141;49.092;8.516;2023-05-10T14:52:29;18.40;30.00
12156;DHT22;6141;49.092;8.516;2023-05-10T14:55:09;18.20;31.90
12156;DHT22;6141;49.092;8.516;2023-05-10T14:57:38;18.10;31.70
12156;DHT22;6141;49.092;8.516;2023-05-10T15:00:07;18.10;31.30
12156;DHT22;6141;49.092;8.516;2023-05-10T15:02:36;18.10;33.70
12156;DHT22;6141;49.092;8.516;2023-05-10T15:05:06;18.00;30.20
12156;DHT22;6141;49.092;8.516;2023-05-10T15:07:34;18.10;33.30
12156;DHT22;6141;49.092;8.516;2023-05-10T15:10:04;18.20;30.00
12156;DHT22;6141;49.092;8.516;2023-05-10T15:12:34;18.10;30.50
12156;DHT22;6141;49.092;8.516;2023-05-10T15:15:03;18.20;33.90
12156;DHT22;6141;49.092;8.516;2023-05-10T15:17:32;18.40;35.20
12156;DHT22;6141;49.092;8.516;2023-05-10T15:20:01;18.40;31.00
12156;DHT22;6141;49.092;8.516;2023-05-10T15:22:31;18.50;32.20
12156;DHT22;6141;49.092;8.516;2023-05-10T15:25:00;18.50;33.10
12156;DHT22;6141;49.092;8.516;2023-05-10T15:27:29;18.60;33.20
12156;DHT22;6141;49.092;8.516;2023-05-10T15:29:59;18.50;30.10
12156;DHT22;6141;49.092;8.516;2023-05-10T15:32:28;18.40;28.90
12156;DHT22;6141;49.092;8.516;2023-05-10T15:34:57;18.30;29.20
12156;DHT22;6141;49.092;8.516;2023-05-10T15:37:25;18.30;29.90
12156;DHT22;6141;49.092;8.516;2023-05-10T15:39:55;18.50;30.00
12156;DHT22;6141;49.092;8.516;2023-05-10T15:42:29;18.30;30.10
12156;DHT22;6141;49.092;8.516;2023-05-10T15:45:00;18.20;31.10
12156;DHT22;6141;49.092;8.516;2023-05-10T15:47:29;18.30;31.30
12156;DHT22;6141;49.092;8.516;2023-05-10T15:50:01;18.20;30.60
12156;DHT22;6141;49.092;8.516;2023-05-10T15:52:29;18.20;32.50
12156;DHT22;6141;49.092;8.516;2023-05-10T15:54:58;18.10;32.30
12156;DHT22;6141;49.092;8.516;2023-05-10T15:57:26;18.00;32.30
12156;DHT22;6141;49.092;8.516;2023-05-10T15:59:55;17.90;31.70
12156;DHT22;6141;49.092;8.516;2023-05-10T16:02:25;17.80;33.30
12156;DHT22;6141;49.092;8.516;2023-05-10T16:04:54;17.90;33.50
12156;DHT22;6141;49.092;8.516;2023-05-10T16:07:22;17.90;33.60
12156;DHT22;6141;49.092;8.516;2023-05-10T16:09:51;18.00;34.70
12156;DHT22;6141;49.092;8.516;2023-05-10T16:12:19;18.00;31.90
12156;DHT22;6141;49.092;8.516;2023-05-10T16:14:48;18.10;32.80
12156;DHT22;6141;49.092;8.516;2023-05-10T16:17:16;18.10;31.40
12156;DHT22;6141;49.092;8.516;2023-05-10T16:19:48;18.00;31.10
12156;DHT22;6141;49.092;8.516;2023-05-10T16:22:16;17.80;30.10
12156;DHT22;6141;49.092;8.516;2023-05-10T16:24:45;17.90;31.00
12156;DHT22;6141;49.092;8.516;2023-05-10T16:27:14;17.70;30.50
12156;DHT22;6141;49.092;8.516;2023-05-10T16:29:43;17.60;32.00
12156;DHT22;6141;49.092;8.516;2023-05-10T16:32:11;17.60;32.00
12156;DHT22;6141;49.092;8.516;2023-05-10T16:34:40;17.70;32.90
12156;DHT22;6141;49.092;8.516;2023-05-10T16:37:10;17.70;33.90
12156;DHT22;6141;49.092;8.516;2023-05-10T16:39:39;17.70;31.80